Columbus, OH (43224)

3:06 AM EDT on July 06, 2015 (GMT -0400)
APRSWXNET | | Change Station
CLOSE
Current Station
Personal Weather Station
Location: Columbus, OH
Elevation: 800 ft
Nearby Weather Stations

Elev 800 ft 40.04 °N, 82.99 °W | Updated 18 minutes ago

Partly Cloudy
Partly Cloudy
67 °F
Feels Like 67 °F
N
0
Wind Variable Wind from ENE
Gusts 0.0 mph

Today
High -- | Low -- °F
--% Chance of Precip.
Yesterday
High -- | Low -- °F
Precip. -- in
6:09 AM 9:03 PM
Waning Gibbous, 78% visible
Pressure 30.02 in
Visibility 8.0 miles
Clouds Mostly Cloudy 17000 ft
Mostly Cloudy 23000 ft
Dew Point 64 °F
Humidity 89%
Rainfall in
Snow Depth Not available.
UV 0 out of 12
Pollen 3.70 out of 12
Air Quality Not available.
Flu Activity Not available.
METAR KCMH 060651Z 00000KT 8SM BKN170 BKN230 18/17 A3004 RMK AO2 SLP166 T01830167

More Conditions Fewer Conditions

Pressure 30.02 in
Visibility 8.0 miles
Clouds Mostly Cloudy 17000 ft
Mostly Cloudy 23000 ft
Dew Point 64 °F
Humidity 89%
Rainfall in
Snow Depth Not available.
UV 0 out of 12
Pollen 3.70 out of 12
Air Quality Not available.
Flu Activity Not available.
METAR KCMH 060651Z 00000KT 8SM BKN170 BKN230 18/17 A3004 RMK AO2 SLP166 T01830167

More Conditions Fewer Conditions

10-Day Weather Forecast

×

Almanac

Astronomy

Jul. 06, 2015 Rise Set
Actual Time
Civil Twilight
Nautical Twilight
Astronomical Twilight
Moon
Length of Visible Light
Length of Day
Tomorrow will be .
, % of the Moon is Illuminated

Today's Extremes

State Highs State Lows

Community

WunderPhotos

Upload Photos

1,835,503 photos uploaded!

WunderBlogs® & News

Nearby

Air Quality

  Air Quality AQ Index Pollutant
Not available.

Snow Depth

Station Depth Elevation

Earthquake Activity

City Distance Mag. Time & Date
Minimum magnitude displayed is 2.5.

Coastal Water Temperatures

Place Temperature

Stations

Nearby Weather Stations

Station Location Temp. Windchill Dew Point Humidity Wind Precip. Elev Updated Type